Time;durP1;ratioP1;P1;durP2;ratioP2;P2;SDS_P1;SDS_P2;PMS_P1;PMS_P2;Temp;Humidity;BMP_temperature;BMP_pressure;BME280_temperature;BME280_humidity;BME280_pressure;Samples;Min_cycle;Max_cycle;Signal;HPM_P1;HPM_P2
2021/09/26 00:01:23;;;;;;;28.83;13.45;;;;;;;16.87;55.07;100143.44;5005788;28;20022;-75
2021/09/26 00:03:49;;;;;;;28.30;12.90;;;;;;;16.90;55.13;100145.56;5008349;28;20046;-75
2021/09/26 00:06:14;;;;;;;26.15;13.27;;;;;;;16.86;55.20;100150.28;5015257;28;20116;-75
2021/09/26 00:08:40;;;;;;;24.60;13.02;;;;;;;16.91;55.10;100154.84;5018462;28;20404;-75
2021/09/26 00:11:06;;;;;;;23.98;11.82;;;;;;;16.80;54.88;100144.06;5014632;28;20026;-75
2021/09/26 00:13:36;;;;;;;23.35;12.77;;;;;;;17.07;54.19;100147.22;5019281;28;20508;-75
2021/09/26 00:16:04;;;;;;;23.85;13.68;;;;;;;16.73;54.48;100145.88;5012452;28;20030;-75
2021/09/26 00:18:29;;;;;;;29.10;13.00;;;;;;;16.55;55.29;100151.84;5012664;28;20026;-75
2021/09/26 00:20:55;;;;;;;24.20;13.20;;;;;;;16.41;55.52;100146.59;5013004;28;20036;-75
2021/09/26 00:23:21;;;;;;;18.50;11.73;;;;;;;16.54;55.33;100144.56;5012510;28;20038;-75
2021/09/26 00:25:47;;;;;;;21.27;10.93;;;;;;;16.35;55.98;100148.84;5011711;28;20122;-75
2021/09/26 00:28:13;;;;;;;20.42;11.70;;;;;;;16.30;56.10;100151.09;5011422;28;20676;-75
2021/09/26 00:30:39;;;;;;;19.15;11.90;;;;;;;15.94;56.93;100148.84;5011406;28;20025;-75
2021/09/26 00:33:05;;;;;;;17.58;10.70;;;;;;;15.92;57.69;100141.91;5009301;28;20430;-75
2021/09/26 00:35:30;;;;;;;22.98;12.55;;;;;;;16.05;57.40;100152.00;5010785;28;20092;-75
2021/09/26 00:37:56;;;;;;;19.23;10.93;;;;;;;16.19;57.30;100153.63;5016814;28;20530;-75
2021/09/26 00:40:21;;;;;;;17.48;10.32;;;;;;;16.17;57.26;100155.94;5009643;28;20120;-75
2021/09/26 00:42:47;;;;;;;19.63;11.50;;;;;;;16.22;57.19;100147.25;5010905;28;20364;-75
2021/09/26 00:45:13;;;;;;;23.08;9.55;;;;;;;16.36;56.91;100152.50;5010510;28;20026;-75
2021/09/26 00:47:39;;;;;;;18.90;12.05;;;;;;;16.36;56.88;100158.16;4997386;28;20029;-75
2021/09/26 00:50:06;;;;;;;22.80;10.50;;;;;;;16.37;56.49;100154.97;5009826;28;20076;-75
2021/09/26 00:52:31;;;;;;;14.88;10.05;;;;;;;15.88;58.34;100163.50;5010558;28;20034;-75
2021/09/26 00:54:57;;;;;;;18.27;9.30;;;;;;;15.86;58.10;100164.69;5011078;28;20075;-75
2021/09/26 00:57:23;;;;;;;14.55;8.05;;;;;;;15.81;57.95;100170.56;5010851;28;20144;-75
2021/09/26 00:59:48;;;;;;;11.32;8.18;;;;;;;15.88;58.56;100166.31;5012073;28;20463;-75
2021/09/26 01:02:14;;;;;;;15.93;8.88;;;;;;;15.93;57.92;100160.50;5013087;28;20370;-75
2021/09/26 01:04:39;;;;;;;11.75;8.55;;;;;;;15.74;57.39;100167.50;5006401;28;20030;-75
2021/09/26 01:07:14;;;;;;;14.70;8.00;;;;;;;15.76;57.64;100164.34;5010127;28;20041;-74
2021/09/26 01:09:58;;;;;;;10.25;7.40;;;;;;;15.42;58.67;100170.91;5015123;28;20033;-75
2021/09/26 01:12:41;;;;;;;14.52;8.13;;;;;;;15.33;59.13;100172.22;5020518;28;20038;-75
2021/09/26 01:15:44;;;;;;;12.70;8.38;;;;;;;15.42;59.36;100161.63;5010634;28;20026;-75
2021/09/26 01:18:31;;;;;;;17.20;10.73;;;;;;;15.34;59.14;100171.84;5008501;28;20022;-75
2021/09/26 01:21:07;;;;;;;14.32;8.80;;;;;;;15.22;59.58;100167.03;5012008;28;20104;-75
2021/09/26 01:24:01;;;;;;;15.48;9.15;;;;;;;15.44;59.28;100159.28;5011879;28;20461;-75
2021/09/26 01:26:55;;;;;;;17.08;9.90;;;;;;;15.47;58.95;100164.22;5000319;28;20066;-75
2021/09/26 01:29:33;;;;;;;13.10;9.65;;;;;;;15.46;59.09;100158.94;5008862;28;20030;-75
2021/09/26 01:32:00;;;;;;;24.98;9.88;;;;;;;15.64;58.42;100153.88;5010929;28;20041;-75
2021/09/26 01:34:41;;;;;;;15.23;9.38;;;;;;;15.59;58.63;100149.31;5013905;28;20034;-75
2021/09/26 01:37:18;;;;;;;18.55;8.80;;;;;;;15.59;58.94;100154.94;5011462;28;20072;-75
2021/09/26 01:39:52;;;;;;;19.85;9.93;;;;;;;15.40;59.16;100152.72;5014556;28;20553;-75
2021/09/26 01:42:29;;;;;;;18.08;10.50;;;;;;;15.40;59.41;100158.34;5005844;28;20046;-75
2021/09/26 01:45:03;;;;;;;15.95;10.13;;;;;;;15.24;60.17;100158.22;5011619;28;20045;-75
2021/09/26 01:47:42;;;;;;;19.27;10.95;;;;;;;15.21;59.97;100156.94;5008253;28;20033;-75
2021/09/26 01:50:10;;;;;;;15.65;10.65;;;;;;;15.15;60.20;100152.69;5010409;28;20403;-75
2021/09/26 01:52:39;;;;;;;18.55;12.15;;;;;;;15.10;60.54;100144.47;5010251;28;20041;-75
2021/09/26 01:55:07;;;;;;;27.77;11.80;;;;;;;15.16;60.09;100159.97;5010001;28;20054;-75
2021/09/26 01:57:34;;;;;;;20.60;12.20;;;;;;;15.06;60.63;100155.59;5011325;28;20499;-75
2021/09/26 02:00:03;;;;;;;25.65;12.68;;;;;;;14.97;60.82;100150.06;5011466;28;20113;-75
2021/09/26 02:02:29;;;;;;;26.17;13.35;;;;;;;15.10;60.68;100150.91;5014895;28;20034;-75
2021/09/26 02:05:03;;;;;;;24.15;12.23;;;;;;;15.12;60.91;100147.75;5014101;28;20520;-75
2021/09/26 02:07:36;;;;;;;21.20;13.48;;;;;;;15.09;60.97;100148.47;5015441;28;20535;-75
2021/09/26 02:10:02;;;;;;;24.38;13.30;;;;;;;15.10;60.77;100150.91;5013266;28;20548;-75
2021/09/26 02:12:30;;;;;;;17.77;11.73;;;;;;;15.22;60.56;100144.47;5015019;28;20411;-75
2021/09/26 02:14:56;;;;;;;23.90;12.95;;;;;;;15.38;60.32;100155.06;5013765;28;20030;-75
2021/09/26 02:17:23;;;;;;;19.88;12.90;;;;;;;15.25;60.58;100157.88;5015217;28;20030;-75
2021/09/26 02:19:54;;;;;;;21.92;12.60;;;;;;;15.21;60.57;100161.72;5013777;28;20476;-75
2021/09/26 02:22:19;;;;;;;;;;;;;;;15.20;60.80;100160.91;5019473;28;20037;-75
2021/09/26 02:24:45;;;;;;;25.38;13.65;;;;;;;15.20;60.75;100157.28;5008700;28;19921;-75
2021/09/26 02:27:11;;;;;;;20.77;12.52;;;;;;;15.27;60.04;100157.53;5016322;28;20034;-75
2021/09/26 02:29:36;;;;;;;18.35;11.90;;;;;;;15.47;59.23;100164.22;5015678;28;20069;-75
2021/09/26 02:32:03;;;;;;;17.20;11.48;;;;;;;15.33;59.65;100166.56;5016821;28;20061;-75
2021/09/26 02:34:29;;;;;;;22.02;12.65;;;;;;;15.26;59.75;100169.94;5013740;28;20039;-75
2021/09/26 02:36:55;;;;;;;21.60;13.50;;;;;;;15.23;59.94;100170.66;5016125;28;20762;-75
2021/09/26 02:39:21;;;;;;;16.48;11.45;;;;;;;15.35;59.35;100176.31;5013589;28;20140;-75
2021/09/26 02:42:12;;;;;;;31.58;12.77;;;;;;;15.22;59.89;100180.28;5013223;28;20046;-75
2021/09/26 02:45:08;;;;;;;24.05;11.57;;;;;;;15.10;59.87;100178.28;5012839;28;20091;-75
2021/09/26 02:47:39;;;;;;;20.15;11.45;;;;;;;14.88;60.54;100172.69;5011195;28;20057;-75
2021/09/26 02:50:06;;;;;;;21.17;11.77;;;;;;;14.89;60.85;100173.50;5014695;28;20093;-75
2021/09/26 02:52:32;;;;;;;24.75;12.38;;;;;;;14.67;61.46;100177.53;5012837;28;20770;-75
2021/09/26 02:54:58;;;;;;;21.00;12.35;;;;;;;14.56;61.84;100175.13;5014351;28;20028;-74
2021/09/26 02:57:23;;;;;;;18.58;12.52;;;;;;;14.59;61.62;100174.44;5013313;28;20435;-74
2021/09/26 02:59:50;;;;;;;19.88;11.93;;;;;;;14.54;61.67;100173.81;5014333;28;20084;-75
2021/09/26 03:02:15;;;;;;;31.80;12.35;;;;;;;14.59;61.52;100176.41;5013448;28;20030;-75
2021/09/26 03:04:45;;;;;;;26.25;11.27;;;;;;;14.52;61.75;100176.97;5013690;28;20017;-75
2021/09/26 03:07:12;;;;;;;18.08;11.50;;;;;;;14.32;62.57;100164.56;5014422;28;20025;-74
2021/09/26 03:09:38;;;;;;;19.13;12.00;;;;;;;14.20;63.30;100181.38;5013261;28;20037;-74
2021/09/26 03:12:12;;;;;;;28.90;14.63;;;;;;;14.21;63.43;100177.38;5012971;28;20595;-74
2021/09/26 03:14:37;;;;;;;32.70;17.35;;;;;;;14.05;63.47;100178.00;5008668;28;20025;-74
2021/09/26 03:17:03;;;;;;;49.60;22.17;;;;;;;13.97;63.91;100181.69;5016397;28;20022;-74
2021/09/26 03:19:28;;;;;;;48.35;24.75;;;;;;;13.83;64.41;100177.16;5013967;28;20025;-74
2021/09/26 03:21:54;;;;;;;43.67;24.38;;;;;;;13.77;64.79;100186.97;5013844;28;20487;-75
2021/09/26 03:24:19;;;;;;;53.10;25.13;;;;;;;13.73;64.90;100181.19;5019047;28;20025;-74
2021/09/26 03:26:44;;;;;;;51.67;26.23;;;;;;;13.76;64.74;100174.06;5014938;28;20029;-74
2021/09/26 03:29:10;;;;;;;66.03;34.22;;;;;;;13.83;63.94;100177.16;5013559;28;20084;-74
2021/09/26 03:31:35;;;;;;;62.17;31.10;;;;;;;13.66;64.49;100180.06;5013580;28;20030;-74
2021/09/26 03:34:01;;;;;;;52.83;29.95;;;;;;;13.63;64.49;100187.19;5012877;28;20037;-74
2021/09/26 03:36:26;;;;;;;48.42;24.60;;;;;;;13.58;65.09;100184.56;5008306;28;20029;-74
2021/09/26 03:38:52;;;;;;;40.75;21.13;;;;;;;13.58;65.31;100182.56;5012528;28;20053;-74
2021/09/26 03:41:17;;;;;;;32.30;18.92;;;;;;;13.60;65.52;100185.06;5007086;28;20092;-75
2021/09/26 03:43:43;;;;;;;49.20;22.13;;;;;;;13.64;65.56;100188.03;5010604;28;20041;-75
2021/09/26 03:46:08;;;;;;;39.88;22.35;;;;;;;13.65;65.30;100184.84;5012133;28;20022;-75
2021/09/26 03:48:34;;;;;;;41.92;23.27;;;;;;;13.66;65.35;100177.25;5013706;28;20025;-75
2021/09/26 03:50:59;;;;;;;49.55;23.80;;;;;;;13.46;65.83;100176.84;5013049;28;20026;-74
2021/09/26 03:53:25;;;;;;;52.53;27.65;;;;;;;13.50;65.46;100177.00;5012712;28;20108;-74
2021/09/26 03:55:50;;;;;;;73.88;28.35;;;;;;;13.46;65.38;100177.69;5013154;28;20048;-73
2021/09/26 03:58:16;;;;;;;58.30;28.63;;;;;;;13.42;65.68;100175.84;5012681;28;20034;-73
2021/09/26 04:00:41;;;;;;;55.58;30.90;;;;;;;13.31;65.50;100178.19;5019435;28;20552;-73
2021/09/26 04:03:07;;;;;;;76.80;32.60;;;;;;;13.48;64.90;100180.13;5010951;28;20029;-73
2021/09/26 04:05:32;;;;;;;75.35;37.28;;;;;;;13.54;64.87;100183.59;5017956;28;20141;-73
2021/09/26 04:07:58;;;;;;;81.63;42.25;;;;;;;13.62;64.21;100186.34;5020175;28;20021;-73
2021/09/26 04:10:24;;;;;;;80.78;39.03;;;;;;;13.67;64.15;100187.34;5014044;28;20022;-73
2021/09/26 04:12:49;;;;;;;69.55;36.20;;;;;;;13.72;63.63;100178.69;5014841;28;20481;-73
2021/09/26 04:15:18;;;;;;;83.97;43.22;;;;;;;13.57;63.85;100180.94;5014016;28;20079;-73
2021/09/26 04:17:43;;;;;;;86.13;45.95;;;;;;;13.60;64.13;100176.63;5013060;28;20485;-73
2021/09/26 04:20:09;;;;;;;98.97;47.58;;;;;;;13.41;64.77;100179.81;5010904;28;20029;-73
2021/09/26 04:22:35;;;;;;;85.95;44.55;;;;;;;13.23;65.72;100184.69;5018261;28;20111;-73
2021/09/26 04:25:01;;;;;;;75.63;42.10;;;;;;;13.08;66.54;100191.66;5012968;28;20105;-73
2021/09/26 04:27:26;;;;;;;75.72;39.90;;;;;;;13.04;66.64;100186.72;5018728;28;20061;-73
2021/09/26 04:29:53;;;;;;;75.13;38.00;;;;;;;13.12;66.73;100189.81;5010010;28;20022;-73
2021/09/26 04:32:20;;;;;;;67.93;34.60;;;;;;;13.16;66.61;100188.00;5017590;28;20030;-73
2021/09/26 04:34:45;;;;;;;62.42;31.60;;;;;;;13.20;66.85;100186.16;5007921;28;20021;-73
2021/09/26 04:37:11;;;;;;;49.80;27.95;;;;;;;13.19;66.78;100187.34;5006033;28;20018;-73
2021/09/26 04:39:37;;;;;;;43.13;23.92;;;;;;;13.27;66.95;100197.72;5010879;28;20018;-73
2021/09/26 04:42:06;;;;;;;39.95;23.45;;;;;;;13.29;66.76;100188.94;5010387;28;20041;-73
2021/09/26 04:44:33;;;;;;;36.42;21.85;;;;;;;13.44;66.38;100207.28;5011398;28;20523;-73
2021/09/26 04:46:59;;;;;;;39.20;21.38;;;;;;;13.27;66.85;100208.13;5010233;28;20040;-73
2021/09/26 04:49:28;;;;;;;36.72;20.63;;;;;;;13.24;67.06;100206.81;5012273;28;20017;-73
2021/09/26 04:51:55;;;;;;;35.63;21.58;;;;;;;13.50;66.17;100205.91;5005244;28;20593;-73
2021/09/26 04:54:20;;;;;;;44.30;21.10;;;;;;;13.52;66.35;100206.44;5004743;28;20113;-72
2021/09/26 04:56:46;;;;;;;46.45;23.02;;;;;;;13.60;66.18;100205.53;5011074;28;20079;-73
2021/09/26 04:59:11;;;;;;;45.55;23.13;;;;;;;13.63;66.07;100212.47;5011769;28;20109;-72
2021/09/26 05:01:37;;;;;;;49.83;25.55;;;;;;;13.68;66.45;100211.47;5018987;28;20038;-72
2021/09/26 05:04:02;;;;;;;48.05;25.98;;;;;;;13.83;65.72;100208.06;5018944;28;20030;-73
2021/09/26 05:06:28;;;;;;;46.53;26.10;;;;;;;13.80;66.13;100211.56;5010119;28;20084;-74
2021/09/26 05:08:53;;;;;;;69.53;22.40;;;;;;;13.76;66.18;100213.44;5013953;28;20038;-74
2021/09/26 05:11:19;;;;;;;63.03;22.20;;;;;;;13.91;65.98;100209.19;5007286;28;20032;-74
2021/09/26 05:13:44;;;;;;;37.83;19.00;;;;;;;14.00;66.03;100209.16;5010628;28;20108;-72
2021/09/26 05:16:10;;;;;;;51.15;20.20;;;;;;;14.12;65.99;100214.03;5008545;28;20030;-73
2021/09/26 05:18:35;;;;;;;38.30;18.33;;;;;;;14.14;65.73;100209.72;5011321;28;20495;-73
2021/09/26 05:21:01;;;;;;;36.00;18.80;;;;;;;14.30;65.51;100203.47;5011673;28;20025;-72
2021/09/26 05:23:26;;;;;;;38.45;18.90;;;;;;;14.51;65.01;100202.66;5003545;28;20101;-72
2021/09/26 05:25:52;;;;;;;34.05;19.15;;;;;;;14.44;65.64;100198.41;5011683;28;20080;-73
2021/09/26 05:28:18;;;;;;;42.80;20.83;;;;;;;14.57;65.50;100196.47;5012996;28;20026;-73
2021/09/26 05:30:44;;;;;;;36.97;19.27;;;;;;;14.79;64.99;100210.56;5013393;28;20029;-73
2021/09/26 05:33:09;;;;;;;29.27;16.15;;;;;;;14.94;64.67;100214.72;5006501;28;20562;-72
2021/09/26 05:35:35;;;;;;;29.20;16.85;;;;;;;15.14;64.13;100215.84;4998256;28;20023;-72
2021/09/26 05:38:02;;;;;;;29.02;16.55;;;;;;;15.25;64.26;100216.22;4992828;28;20038;-72
2021/09/26 05:40:27;;;;;;;27.92;15.38;;;;;;;15.32;64.38;100218.44;4997662;28;20510;-72
2021/09/26 05:42:53;;;;;;;29.73;14.57;;;;;;;15.52;63.20;100222.38;5001576;28;20049;-73
2021/09/26 05:45:18;;;;;;;29.35;15.23;;;;;;;15.48;63.58;100218.59;5000610;28;20045;-74
2021/09/26 05:47:44;;;;;;;29.10;15.63;;;;;;;15.61;63.46;100214.63;5005083;28;20030;-73
2021/09/26 05:50:10;;;;;;;25.65;14.77;;;;;;;15.75;63.20;100219.91;5011561;28;20029;-74
2021/09/26 05:52:35;;;;;;;19.80;13.93;;;;;;;15.82;62.97;100222.16;5005389;28;20038;-74
2021/09/26 05:55:01;;;;;;;24.73;12.77;;;;;;;16.01;62.47;100221.59;4999122;28;20033;-74
2021/09/26 05:57:26;;;;;;;24.15;11.07;;;;;;;16.06;62.31;100223.34;5010343;28;20057;-75
2021/09/26 05:59:52;;;;;;;20.20;9.38;;;;;;;16.15;62.10;100229.69;5002391;28;20025;-74
2021/09/26 06:02:23;;;;;;;17.58;9.75;;;;;;;16.25;61.65;100226.41;5004728;28;20587;-74
2021/09/26 06:04:49;;;;;;;18.58;10.65;;;;;;;16.31;61.48;100221.31;5012890;28;20027;-74
2021/09/26 06:07:15;;;;;;;19.40;11.00;;;;;;;16.35;61.18;100210.97;4993977;28;20064;-74
2021/09/26 06:09:41;;;;;;;14.70;10.32;;;;;;;16.40;60.99;100216.34;4998119;28;20030;-72
2021/09/26 06:12:07;;;;;;;15.75;9.35;;;;;;;16.51;61.05;100222.34;5001600;28;20467;-72
2021/09/26 06:14:32;;;;;;;22.70;10.38;;;;;;;16.64;60.63;100220.28;5006707;28;20030;-72
2021/09/26 06:16:58;;;;;;;17.80;8.95;;;;;;;16.76;60.09;100219.41;5008050;28;20080;-74
2021/09/26 06:19:23;;;;;;;15.57;8.40;;;;;;;16.78;60.13;100219.88;5002632;28;20018;-72
2021/09/26 06:21:52;;;;;;;20.08;8.48;;;;;;;16.87;59.90;100225.38;5010442;28;20050;-72
2021/09/26 06:24:17;;;;;;;16.20;8.93;;;;;;;16.95;59.32;100218.75;5009122;28;20045;-73
2021/09/26 06:26:43;;;;;;;13.95;7.90;;;;;;;16.91;59.39;100226.31;5006713;28;20471;-72
2021/09/26 06:29:08;;;;;;;16.33;6.70;;;;;;;17.07;59.38;100215.06;5007270;28;20059;-73
2021/09/26 06:31:34;;;;;;;8.93;6.25;;;;;;;17.30;58.29;100216.47;5009688;28;20026;-71
2021/09/26 06:34:00;;;;;;;12.68;7.55;;;;;;;17.49;58.04;100210.91;5008252;28;20030;-73
2021/09/26 06:36:25;;;;;;;16.10;7.50;;;;;;;17.59;57.45;100217.22;5009769;28;20036;-73
2021/09/26 06:38:51;;;;;;;11.95;7.57;;;;;;;17.67;56.55;100207.75;5008235;28;20404;-71
2021/09/26 06:41:18;;;;;;;14.55;8.60;;;;;;;17.81;56.74;100207.28;5000418;28;20397;-73
2021/09/26 06:43:43;;;;;;;16.75;8.52;;;;;;;17.89;56.54;100203.41;4999810;28;20515;-77
2021/09/26 06:46:09;;;;;;;16.42;7.95;;;;;;;17.97;56.32;100210.06;5010751;28;20022;-73
2021/09/26 06:48:34;;;;;;;12.20;8.68;;;;;;;18.17;55.39;100210.16;5004521;28;20034;-71
2021/09/26 06:51:00;;;;;;;19.25;9.50;;;;;;;18.27;54.96;100220.06;4998676;28;20021;-76
2021/09/26 06:53:25;;;;;;;14.57;9.18;;;;;;;18.37;55.08;100217.50;5000132;28;20483;-71
2021/09/26 06:55:51;;;;;;;17.63;10.00;;;;;;;18.45;54.80;100211.97;5011498;28;20037;-71
2021/09/26 06:58:16;;;;;;;13.93;9.27;;;;;;;18.45;54.89;100217.66;5009843;28;20034;-72
2021/09/26 07:00:42;;;;;;;12.15;7.97;;;;;;;18.62;54.83;100213.56;4998642;28;20033;-73
2021/09/26 07:03:07;;;;;;;11.88;7.88;;;;;;;18.69;54.63;100215.72;5012628;28;20484;-73
2021/09/26 07:05:33;;;;;;;9.77;7.07;;;;;;;18.84;54.35;100217.69;5012821;28;20121;-73
2021/09/26 07:07:58;;;;;;;9.70;6.72;;;;;;;18.91;54.09;100211.34;5013316;28;20512;-73
2021/09/26 07:10:24;;;;;;;8.30;6.35;;;;;;;18.97;53.42;100207.00;5014270;28;20045;-72
2021/09/26 07:12:49;;;;;;;8.95;5.57;;;;;;;19.02;53.27;100205.91;5014066;28;20461;-72
2021/09/26 07:15:15;;;;;;;17.73;7.00;;;;;;;19.13;53.94;100201.25;5003438;28;20030;-73
2021/09/26 07:17:40;;;;;;;22.42;6.53;;;;;;;19.19;54.02;100205.44;5008015;28;20033;-71
2021/09/26 07:20:07;;;;;;;19.70;6.95;;;;;;;19.41;53.52;100205.81;5002765;28;20034;-71
2021/09/26 07:22:32;;;;;;;12.90;6.57;;;;;;;19.33;53.05;100207.69;5014182;28;20514;-71
2021/09/26 07:24:58;;;;;;;10.52;6.93;;;;;;;19.54;52.71;100202.78;5013760;28;20095;-71
2021/09/26 07:27:25;;;;;;;13.82;6.63;;;;;;;19.44;52.89;100207.91;5012631;28;20034;-71
2021/09/26 07:29:50;;;;;;;17.80;6.90;;;;;;;19.47;52.60;100209.97;5011970;28;20033;-71
2021/09/26 07:32:16;;;;;;;16.02;6.53;;;;;;;19.54;52.46;100202.78;5013574;28;20030;-71
2021/09/26 07:34:43;;;;;;;33.10;8.40;;;;;;;19.77;52.24;100199.94;5006424;28;20022;-71
2021/09/26 07:37:09;;;;;;;23.40;7.25;;;;;;;20.04;52.97;100202.81;5013627;28;20076;-71
2021/09/26 07:39:36;;;;;;;11.50;6.18;;;;;;;20.28;53.22;100207.25;5012020;28;20542;-71
2021/09/26 07:42:01;;;;;;;28.30;7.75;;;;;;;20.42;51.05;100200.91;5008542;28;20053;-72
2021/09/26 07:44:27;;;;;;;10.70;6.88;;;;;;;20.55;50.93;100210.03;5005048;28;20036;-72
2021/09/26 07:46:52;;;;;;;129.35;18.20;;;;;;;20.82;50.00;100186.44;5005946;28;20029;-71
2021/09/26 07:49:18;;;;;;;359.17;47.42;;;;;;;20.93;49.96;100189.41;5011055;28;20107;-72
2021/09/26 07:51:45;;;;;;;167.32;23.95;;;;;;;21.03;50.03;100188.72;5005483;28;20018;-72
2021/09/26 07:54:12;;;;;;;23.75;8.43;;;;;;;20.92;49.70;100185.72;5005423;28;20026;-71
2021/09/26 07:56:38;;;;;;;16.00;7.68;;;;;;;21.13;49.49;100188.00;4996810;28;20122;-71
2021/09/26 07:59:04;;;;;;;11.75;6.22;;;;;;;21.18;49.82;100186.84;5020848;28;20185;-70
2021/09/26 08:01:30;;;;;;;12.82;7.22;;;;;;;21.24;48.53;100181.63;5003844;28;20026;-70
2021/09/26 08:03:55;;;;;;;22.10;6.38;;;;;;;21.32;48.53;100175.59;5008208;28;20061;-70
2021/09/26 08:06:21;;;;;;;12.88;6.65;;;;;;;21.27;48.97;100183.66;5008918;28;20492;-72
2021/09/26 08:08:47;;;;;;;13.32;6.47;;;;;;;21.37;47.67;100171.56;5002731;28;20519;-72
2021/09/26 08:11:12;;;;;;;13.68;6.68;;;;;;;21.40;48.46;100173.63;5010261;28;20168;-75
2021/09/26 08:13:37;;;;;;;10.02;6.13;;;;;;;21.68;47.67;100177.97;5012026;28;20029;-70
2021/09/26 08:16:03;;;;;;;12.52;6.60;;;;;;;21.62;47.71;100168.13;5003544;28;20139;-71
2021/09/26 08:18:29;;;;;;;10.27;6.05;;;;;;;21.72;47.43;100167.44;5002411;28;20042;-70
2021/09/26 08:20:55;;;;;;;10.60;6.28;;;;;;;22.09;46.99;100167.69;5003074;28;20054;-70
2021/09/26 08:23:20;;;;;;;10.25;6.80;;;;;;;22.06;47.05;100162.75;5006890;28;20026;-71
2021/09/26 08:25:46;;;;;;;12.27;6.78;;;;;;;22.08;46.52;100164.00;5002515;28;20026;-71
2021/09/26 08:28:12;;;;;;;7.15;6.28;;;;;;;22.17;45.71;100163.63;5008146;28;20084;-71
2021/09/26 08:30:38;;;;;;;7.07;5.32;;;;;;;22.29;45.73;100154.75;5012897;28;20096;-70
2021/09/26 08:33:04;;;;;;;19.60;6.32;;;;;;;22.31;45.94;100154.38;5011466;28;20168;-70
2021/09/26 08:35:30;;;;;;;18.48;6.13;;;;;;;22.52;45.50;100156.53;5006780;28;20033;-71
2021/09/26 08:37:56;;;;;;;11.57;6.00;;;;;;;22.61;45.34;100152.50;5010547;28;20092;-70
2021/09/26 08:40:22;;;;;;;9.65;5.85;;;;;;;22.70;45.09;100150.09;5012635;28;20026;-71
2021/09/26 08:42:48;;;;;;;6.20;5.50;;;;;;;22.64;43.99;100145.97;5014930;28;20080;-71
2021/09/26 08:45:16;;;;;;;9.13;5.70;;;;;;;22.74;44.40;100144.38;5014919;28;20045;-72
2021/09/26 08:47:43;;;;;;;8.40;5.53;;;;;;;22.93;43.64;100134.66;5011860;28;20034;-71
2021/09/26 08:50:11;;;;;;;8.13;5.13;;;;;;;23.03;44.02;100139.56;5002450;28;20032;-72
2021/09/26 08:52:37;;;;;;;13.38;5.63;;;;;;;23.03;42.85;100133.84;5011759;28;20380;-72
2021/09/26 08:55:04;;;;;;;8.80;5.10;;;;;;;23.14;43.22;100131.84;5011016;28;20037;-72
2021/09/26 08:57:30;;;;;;;10.90;5.43;;;;;;;23.07;43.76;100126.13;5006726;28;20034;-71
2021/09/26 08:59:55;;;;;;;6.22;5.60;;;;;;;23.27;43.86;100118.03;5002793;28;20029;-71
2021/09/26 09:02:21;;;;;;;10.73;5.40;;;;;;;23.32;42.94;100119.66;5004461;28;20021;-71
2021/09/26 09:04:46;;;;;;;11.15;5.88;;;;;;;23.45;43.13;100122.91;5008092;28;20034;-71
2021/09/26 09:07:12;;;;;;;13.00;5.18;;;;;;;23.60;42.70;100106.59;4999431;28;20532;-70
2021/09/26 09:09:58;;;;;;;9.30;4.88;;;;;;;23.58;42.33;100111.91;5007086;28;20619;-71
2021/09/26 09:12:27;;;;;;;15.65;6.15;;;;;;;23.67;43.15;100108.63;5000938;28;20503;-70
2021/09/26 09:14:58;;;;;;;6.72;5.35;;;;;;;23.61;42.36;100110.28;5007372;28;20583;-71
2021/09/26 09:17:41;;;;;;;7.53;5.45;;;;;;;23.75;43.01;100109.44;5005491;28;20144;-71
2021/09/26 09:20:15;;;;;;;15.18;5.75;;;;;;;23.90;42.74;100107.38;4998934;28;20041;-70
2021/09/26 09:22:43;;;;;;;10.20;4.90;;;;;;;24.05;41.88;100103.25;5012287;28;20463;-70
2021/09/26 09:25:27;;;;;;;10.60;5.38;;;;;;;24.08;41.46;100107.34;5005783;28;20030;-70
2021/09/26 09:27:55;;;;;;;18.23;6.47;;;;;;;24.21;41.77;100094.22;5004950;28;20542;-73
2021/09/26 09:30:35;;;;;;;10.52;6.25;;;;;;;24.36;41.23;100091.31;5002204;28;20025;-72
2021/09/26 09:33:01;;;;;;;18.67;8.82;;;;;;;24.46;41.82;100095.38;5004058;28;20044;-72
2021/09/26 09:35:29;;;;;;;10.38;5.22;;;;;;;24.64;40.94;100092.41;5009826;28;20464;-73
2021/09/26 09:37:55;;;;;;;15.95;6.13;;;;;;;24.88;40.01;100087.00;5004061;28;20030;-72
2021/09/26 09:40:21;;;;;;;11.38;6.25;;;;;;;24.99;40.58;100084.88;5008686;28;20156;-73
2021/09/26 09:42:49;;;;;;;13.32;5.22;;;;;;;25.15;39.39;100089.25;5008732;28;20125;-74
2021/09/26 09:45:23;;;;;;;5.13;4.32;;;;;;;25.19;39.33;100085.13;5008565;28;20418;-73
2021/09/26 09:47:59;;;;;;;11.90;5.55;;;;;;;25.29;38.70;100080.53;5010198;28;20030;-72
2021/09/26 09:50:39;;;;;;;7.82;4.60;;;;;;;25.21;38.74;100082.63;5009738;28;20026;-72
2021/09/26 09:53:06;;;;;;;8.15;5.43;;;;;;;25.38;39.01;100080.03;4998744;28;20083;-73
2021/09/26 09:55:32;;;;;;;12.38;4.93;;;;;;;25.40;38.61;100083.31;5011239;28;20030;-73
2021/09/26 09:58:15;;;;;;;5.60;4.85;;;;;;;25.51;38.32;100075.44;5004859;28;20017;-72
2021/09/26 10:00:56;;;;;;;9.85;5.40;;;;;;;25.49;38.92;100065.66;5000228;28;20026;-70
2021/09/26 10:03:39;;;;;;;6.40;5.13;;;;;;;25.69;37.05;100067.91;5001709;28;20030;-71
2021/09/26 10:06:21;;;;;;;9.25;4.68;;;;;;;25.74;37.88;100067.47;5007702;28;20112;-70
2021/09/26 10:08:48;;;;;;;9.43;4.70;;;;;;;25.85;37.64;100064.47;5004612;28;20029;-71
2021/09/26 10:11:16;;;;;;;8.60;5.82;;;;;;;25.95;37.23;100057.00;5006187;28;20022;-71
2021/09/26 10:13:42;;;;;;;7.88;5.25;;;;;;;25.98;37.13;100053.28;5011011;28;20018;-73
2021/09/26 10:16:09;;;;;;;28.40;7.18;;;;;;;26.04;37.61;100046.66;4999904;28;20022;-71
2021/09/26 10:18:36;;;;;;;7.55;5.22;;;;;;;26.19;36.95;100047.31;5007256;28;20366;-73
2021/09/26 10:21:04;;;;;;;21.33;5.63;;;;;;;26.35;36.37;100040.16;5010610;28;20018;-71
2021/09/26 10:23:30;;;;;;;9.55;5.45;;;;;;;26.34;35.96;100044.25;5010909;28;20084;-72
2021/09/26 10:25:57;;;;;;;6.18;5.13;;;;;;;26.42;35.70;100036.38;5013389;28;20021;-74
2021/09/26 10:28:27;;;;;;;12.60;5.40;;;;;;;26.45;35.26;100036.31;5014835;28;20424;-72
2021/09/26 10:30:54;;;;;;;9.68;4.97;;;;;;;26.30;35.39;100029.97;5014300;28;20017;-73
2021/09/26 10:33:20;;;;;;;6.75;5.00;;;;;;;26.26;35.60;100029.22;5013247;28;20028;-74
2021/09/26 10:35:46;;;;;;;7.60;4.60;;;;;;;26.74;34.04;100015.81;5014025;28;20467;-72
2021/09/26 10:38:12;;;;;;;22.52;5.03;;;;;;;26.78;35.08;100012.88;5007374;28;20026;-72
2021/09/26 10:40:39;;;;;;;41.13;6.75;;;;;;;26.91;34.51;100005.31;5008333;28;20029;-71
2021/09/26 10:43:26;;;;;;;6.28;3.88;;;;;;;26.95;33.82;100011.00;5012373;28;20504;-74
2021/09/26 10:46:16;;;;;;;8.10;4.50;;;;;;;26.93;33.90;100002.03;5022717;28;20019;-75
2021/09/26 10:49:15;;;;;;;6.78;4.45;;;;;;;26.94;34.62;99997.91;5011499;28;20105;-72
2021/09/26 10:51:44;;;;;;;8.10;4.38;;;;;;;26.98;34.52;99997.84;5007976;28;20070;-72
2021/09/26 10:54:21;;;;;;;10.43;4.90;;;;;;;26.97;34.01;99987.59;5005908;28;20497;-73
2021/09/26 10:56:48;;;;;;;8.43;4.50;;;;;;;27.14;34.74;99986.50;5011466;28;20030;-72
2021/09/26 10:59:14;;;;;;;9.48;4.57;;;;;;;27.33;33.72;99981.22;5008665;28;20028;-70
2021/09/26 11:01:39;;;;;;;7.60;4.75;;;;;;;27.32;33.05;99983.28;5004135;28;20025;-72
2021/09/26 11:04:05;;;;;;;6.07;4.43;;;;;;;27.45;33.64;99974.03;5007950;28;20049;-72
2021/09/26 11:06:31;;;;;;;11.85;4.53;;;;;;;27.54;33.74;99974.28;5011062;28;20026;-72
2021/09/26 11:09:01;;;;;;;11.35;5.25;;;;;;;27.69;33.36;99976.88;5007346;28;20092;-70
2021/09/26 11:11:47;;;;;;;7.30;4.45;;;;;;;27.84;32.80;99963.81;5007025;28;20022;-72
2021/09/26 11:14:14;;;;;;;5.78;4.53;;;;;;;27.90;32.05;99961.25;5000827;28;20041;-72
2021/09/26 11:17:12;;;;;;;10.43;4.40;;;;;;;28.09;32.13;99959.59;4997338;28;20026;-72
2021/09/26 11:19:51;;;;;;;6.10;5.10;;;;;;;28.14;32.27;99956.22;4970500;28;20538;-72